Terminal Aerodrome Forecast
Issued by NWS Quad Cities IA IL

Home | Current Version | Previous Version | Text Only | Print | Product List | Glossary On
Versions: 1 2 3 4 5 6 7 8 9 10 11 12 13 14 15 16 17 18
000
FTUS43 KDVN 250500 RRA
TAFMLI
TAF
KMLI 250543Z 2506/2606 10004KT P6SM OVC120
     FM251000 07007KT P6SM -RA VCSH BKN035 OVC060
     FM251300 05011G19KT 1 1/2SM -SN BR BKN008 OVC015
     FM251700 03014G23KT P6SM BKN020
     FM252100 02011KT P6SM SCT030 SCT250=

USA.gov is the U.S. government's official web portal to all federal, state and local government web resources and services.